createdAt,value
2022-07-30T00:00:08.162Z,0.00
2022-07-30T00:01:08.204Z,0.00
2022-07-30T00:02:08.183Z,0.00
2022-07-30T00:03:08.155Z,0.00
2022-07-30T00:04:08.194Z,0.00
2022-07-30T00:05:08.117Z,0.00
2022-07-30T00:06:08.094Z,0.00
2022-07-30T00:07:08.147Z,0.00
2022-07-30T00:08:08.102Z,0.00
2022-07-30T00:09:08.067Z,0.00
2022-07-30T00:10:08.064Z,0.00
2022-07-30T00:11:08.053Z,0.00
2022-07-30T00:12:08.065Z,0.00
2022-07-30T00:13:08.059Z,0.00
2022-07-30T00:14:08.011Z,0.00
2022-07-30T00:15:08.000Z,0.00
2022-07-30T00:16:08.012Z,0.00
2022-07-30T00:17:08.138Z,0.00
2022-07-30T00:18:07.998Z,0.00
2022-07-30T00:19:07.990Z,0.00
2022-07-30T00:20:07.954Z,0.00
2022-07-30T00:21:07.939Z,0.00
2022-07-30T00:22:07.954Z,0.00
2022-07-30T00:23:07.944Z,0.00
2022-07-30T00:24:07.920Z,0.00
2022-07-30T00:25:07.914Z,0.00
2022-07-30T00:26:07.900Z,0.00
2022-07-30T00:27:07.891Z,0.00
2022-07-30T00:28:07.966Z,0.00
2022-07-30T00:29:07.848Z,0.00
2022-07-30T00:30:07.866Z,0.00
2022-07-30T00:31:07.887Z,0.00
2022-07-30T00:32:07.848Z,0.00
2022-07-30T00:33:08.200Z,0.00
2022-07-30T00:34:07.827Z,0.00
2022-07-30T00:35:07.784Z,0.00
2022-07-30T00:36:07.808Z,0.00
2022-07-30T00:37:07.901Z,0.00
2022-07-30T00:38:07.788Z,0.00
2022-07-30T00:39:07.761Z,0.00
2022-07-30T00:40:07.796Z,0.00
2022-07-30T00:41:07.736Z,0.00
2022-07-30T00:42:07.745Z,0.00
2022-07-30T00:43:07.744Z,0.00
2022-07-30T00:44:07.741Z,0.00
2022-07-30T00:45:07.694Z,0.00
2022-07-30T00:46:07.718Z,0.00
2022-07-30T00:47:07.671Z,0.00
2022-07-30T00:48:07.664Z,0.00
2022-07-30T00:49:07.713Z,0.00
2022-07-30T00:50:07.638Z,0.00
2022-07-30T00:51:07.622Z,0.00
2022-07-30T00:52:07.609Z,0.00
2022-07-30T00:53:07.630Z,0.00
2022-07-30T00:54:07.617Z,0.00
2022-07-30T00:55:07.589Z,0.00
2022-07-30T00:56:07.601Z,0.00
2022-07-30T00:57:07.569Z,0.00
2022-07-30T00:58:07.562Z,0.00
2022-07-30T00:59:07.570Z,0.00
2022-07-30T01:00:07.583Z,0.00
2022-07-30T01:01:07.570Z,0.00
2022-07-30T01:02:07.541Z,0.00
2022-07-30T01:03:07.518Z,0.00
2022-07-30T01:04:07.492Z,0.00
2022-07-30T01:05:07.489Z,0.00
2022-07-30T01:06:14.061Z,0.00
2022-07-30T01:07:08.489Z,0.00
2022-07-30T01:08:07.472Z,0.00
2022-07-30T01:09:07.455Z,0.00
2022-07-30T01:10:07.407Z,0.00
2022-07-30T01:11:07.467Z,0.00
2022-07-30T01:12:07.399Z,0.00
2022-07-30T01:13:07.462Z,0.00
2022-07-30T01:14:07.389Z,0.00
2022-07-30T01:15:07.375Z,0.00
2022-07-30T01:16:07.429Z,0.00
2022-07-30T01:17:07.365Z,0.00
2022-07-30T01:18:07.368Z,0.00
2022-07-30T01:19:07.332Z,0.00
2022-07-30T01:20:07.322Z,0.00
2022-07-30T01:21:07.336Z,0.00
2022-07-30T01:22:07.303Z,0.00
2022-07-30T01:23:07.333Z,0.00
2022-07-30T01:24:07.302Z,0.00
2022-07-30T01:25:07.276Z,0.00
2022-07-30T01:26:07.260Z,0.00
2022-07-30T01:27:07.275Z,0.00
2022-07-30T01:28:07.272Z,0.00
2022-07-30T01:29:07.214Z,0.00
2022-07-30T01:30:07.236Z,0.00
2022-07-30T01:31:07.231Z,0.00
2022-07-30T01:32:07.247Z,0.00
2022-07-30T01:33:07.201Z,0.00
2022-07-30T01:34:07.172Z,0.00
2022-07-30T01:35:07.157Z,0.00
2022-07-30T01:36:07.164Z,0.00
2022-07-30T01:37:07.147Z,0.00
2022-07-30T01:38:07.124Z,0.00
2022-07-30T01:39:07.117Z,0.00
2022-07-30T01:40:07.132Z,0.00
2022-07-30T01:41:07.135Z,0.00
2022-07-30T01:42:07.097Z,0.00
2022-07-30T01:43:07.133Z,0.00
2022-07-30T01:44:07.081Z,0.00
2022-07-30T01:45:07.079Z,0.00
2022-07-30T01:46:07.129Z,0.00
2022-07-30T01:47:07.045Z,0.00
2022-07-30T01:48:07.042Z,0.00
2022-07-30T01:49:07.049Z,0.00
2022-07-30T01:50:07.016Z,0.00
2022-07-30T01:51:07.021Z,0.00
2022-07-30T01:52:06.997Z,0.00
2022-07-30T01:53:07.007Z,0.00
2022-07-30T01:54:06.956Z,0.00
2022-07-30T01:55:11.580Z,0.00
2022-07-30T01:56:10.762Z,0.00
2022-07-30T01:57:06.942Z,0.00
2022-07-30T01:58:06.932Z,0.00
2022-07-30T01:59:06.932Z,0.00
2022-07-30T02:00:06.910Z,0.00
2022-07-30T02:01:06.923Z,0.00
2022-07-30T02:02:06.890Z,0.00
2022-07-30T02:03:06.883Z,0.00
2022-07-30T02:04:06.888Z,0.00
2022-07-30T02:05:06.842Z,0.00
2022-07-30T02:06:06.889Z,0.00
2022-07-30T02:07:06.842Z,0.00
2022-07-30T02:08:06.812Z,0.00
2022-07-30T02:09:10.631Z,0.00
2022-07-30T02:10:06.810Z,0.00
2022-07-30T02:11:06.780Z,0.00
2022-07-30T02:12:06.815Z,0.00
2022-07-30T02:13:06.782Z,0.00
2022-07-30T02:14:06.776Z,0.00
2022-07-30T02:15:06.763Z,0.00
2022-07-30T02:16:06.779Z,0.00
2022-07-30T02:17:06.736Z,0.00
2022-07-30T02:18:06.722Z,0.00
2022-07-30T02:19:06.892Z,0.00
2022-07-30T02:20:09.732Z,0.00
2022-07-30T02:21:07.630Z,0.00
2022-07-30T02:22:08.556Z,0.00
2022-07-30T02:23:06.673Z,0.00
2022-07-30T02:24:06.667Z,0.00
2022-07-30T02:25:06.655Z,0.00
2022-07-30T02:26:06.612Z,0.00
2022-07-30T02:27:06.646Z,0.00
2022-07-30T02:28:06.616Z,0.00
2022-07-30T02:29:11.090Z,0.00
2022-07-30T02:30:06.586Z,0.00
2022-07-30T02:31:17.408Z,0.00
2022-07-30T02:32:07.634Z,0.00
2022-07-30T02:33:06.558Z,0.00
2022-07-30T02:34:06.567Z,0.00
2022-07-30T02:35:06.554Z,0.00
2022-07-30T02:36:11.232Z,0.00
2022-07-30T02:37:07.523Z,0.00
2022-07-30T02:38:06.485Z,0.00
2022-07-30T02:39:06.519Z,0.00
2022-07-30T02:40:06.471Z,0.00
2022-07-30T02:41:06.482Z,0.00
2022-07-30T02:42:06.469Z,0.00
2022-07-30T02:43:06.437Z,0.00
2022-07-30T02:44:06.452Z,0.00
2022-07-30T02:45:06.446Z,0.00
2022-07-30T02:46:06.404Z,0.00
2022-07-30T02:47:06.523Z,0.00
2022-07-30T02:48:06.408Z,0.00
2022-07-30T02:49:06.470Z,0.00
2022-07-30T02:50:06.388Z,0.00
2022-07-30T02:51:06.372Z,0.00
2022-07-30T02:52:06.357Z,0.00
2022-07-30T02:53:06.362Z,0.00
2022-07-30T02:54:06.347Z,0.00
2022-07-30T02:55:06.330Z,0.00
2022-07-30T02:56:06.311Z,0.00
2022-07-30T02:57:06.322Z,0.00
2022-07-30T02:58:06.306Z,0.00
2022-07-30T02:59:07.280Z,0.00
2022-07-30T03:00:06.260Z,0.00
2022-07-30T03:01:06.332Z,0.00
2022-07-30T03:02:06.290Z,0.00
2022-07-30T03:03:06.262Z,0.00
2022-07-30T03:04:06.228Z,0.00
2022-07-30T03:05:06.225Z,0.00
2022-07-30T03:06:06.193Z,0.00
2022-07-30T03:07:08.448Z,0.00
2022-07-30T03:08:06.214Z,0.00
2022-07-30T03:09:06.185Z,0.00
2022-07-30T03:10:06.154Z,0.00
2022-07-30T03:11:06.145Z,0.00
2022-07-30T03:12:06.158Z,0.00
2022-07-30T03:13:06.138Z,0.00
2022-07-30T03:14:06.136Z,0.00
2022-07-30T03:15:06.106Z,0.00
2022-07-30T03:16:06.133Z,0.00
2022-07-30T03:17:06.085Z,0.00
2022-07-30T03:18:06.075Z,0.00
2022-07-30T03:19:06.084Z,0.00
2022-07-30T03:20:06.042Z,0.00
2022-07-30T03:21:06.047Z,0.00
2022-07-30T03:22:06.044Z,0.00
2022-07-30T03:23:06.033Z,0.00
2022-07-30T03:24:06.028Z,0.00
2022-07-30T03:25:06.021Z,0.00
2022-07-30T03:26:05.988Z,0.00
2022-07-30T03:27:05.987Z,4.00
2022-07-30T03:28:05.978Z,4.00
2022-07-30T03:29:05.972Z,4.00
2022-07-30T03:30:05.967Z,0.00
2022-07-30T03:31:05.999Z,0.00
2022-07-30T03:32:05.954Z,4.00
2022-07-30T03:33:05.926Z,4.00
2022-07-30T03:34:06.427Z,4.00
2022-07-30T03:35:08.687Z,4.00
2022-07-30T03:36:06.897Z,8.00
2022-07-30T03:37:05.905Z,4.00
2022-07-30T03:38:05.859Z,8.00
2022-07-30T03:39:06.070Z,8.00
2022-07-30T03:40:05.850Z,8.00
2022-07-30T03:41:05.873Z,8.00
2022-07-30T03:42:05.840Z,12.00
2022-07-30T03:43:05.814Z,12.00
2022-07-30T03:44:06.809Z,12.00
2022-07-30T03:45:05.805Z,12.00
2022-07-30T03:46:05.806Z,12.00
2022-07-30T03:47:06.191Z,20.00
2022-07-30T03:48:05.781Z,20.00
2022-07-30T03:49:05.798Z,24.00
2022-07-30T03:50:05.765Z,24.00
2022-07-30T03:51:05.787Z,24.00
2022-07-30T03:52:05.727Z,28.00
2022-07-30T03:53:05.710Z,28.00
2022-07-30T03:54:06.468Z,28.00
2022-07-30T03:55:05.703Z,32.00
2022-07-30T03:56:05.691Z,36.00
2022-07-30T03:57:05.676Z,36.00
2022-07-30T03:58:05.639Z,40.00
2022-07-30T03:59:05.666Z,44.00
2022-07-30T04:00:05.637Z,40.00
2022-07-30T04:01:05.638Z,44.00
2022-07-30T04:02:07.349Z,44.00
2022-07-30T04:03:05.605Z,48.00
2022-07-30T04:04:05.648Z,48.00
2022-07-30T04:05:05.572Z,52.00
2022-07-30T04:06:05.580Z,56.00
2022-07-30T04:07:05.597Z,56.00
2022-07-30T04:08:05.539Z,56.00
2022-07-30T04:09:05.561Z,60.00
2022-07-30T04:10:05.534Z,64.00
2022-07-30T04:11:05.514Z,64.00
2022-07-30T04:12:05.504Z,68.00
2022-07-30T04:13:09.407Z,68.00
2022-07-30T04:14:05.492Z,76.00
2022-07-30T04:16:37.690Z,80.00
2022-07-30T04:16:39.782Z,88.00
2022-07-30T04:17:06.518Z,92.00
2022-07-30T04:18:05.445Z,100.00
2022-07-30T04:19:05.457Z,108.00
2022-07-30T04:20:05.421Z,108.00
2022-07-30T04:21:05.411Z,112.00
2022-07-30T04:22:05.397Z,116.00
2022-07-30T04:23:05.440Z,120.00
2022-07-30T04:24:05.818Z,128.00
2022-07-30T04:25:05.368Z,128.00
2022-07-30T04:26:05.355Z,132.00
2022-07-30T04:27:05.377Z,140.00
2022-07-30T04:28:05.329Z,140.00
2022-07-30T04:29:05.370Z,152.00
2022-07-30T04:30:05.318Z,152.00
2022-07-30T04:31:05.352Z,160.00
2022-07-30T04:32:05.302Z,168.00
2022-07-30T04:33:05.280Z,172.00
2022-07-30T04:34:05.297Z,176.00
2022-07-30T04:35:05.273Z,176.00
2022-07-30T04:36:05.256Z,180.00
2022-07-30T04:37:05.265Z,184.00
2022-07-30T04:38:05.229Z,184.00
2022-07-30T04:39:05.252Z,184.00
2022-07-30T04:40:05.250Z,184.00
2022-07-30T04:41:05.241Z,188.00
2022-07-30T04:42:05.188Z,180.00
2022-07-30T04:43:05.212Z,184.00
2022-07-30T04:44:05.173Z,196.00
2022-07-30T04:45:05.181Z,204.00
2022-07-30T04:46:05.172Z,204.00
2022-07-30T04:47:05.141Z,200.00
2022-07-30T04:48:05.128Z,184.00
2022-07-30T04:49:05.162Z,176.00
2022-07-30T04:50:05.127Z,192.00
2022-07-30T04:51:05.118Z,192.00
2022-07-30T04:52:05.121Z,192.00
2022-07-30T04:53:05.097Z,200.00
2022-07-30T04:54:05.073Z,216.00
2022-07-30T04:55:05.074Z,228.00
2022-07-30T04:56:05.067Z,252.00
2022-07-30T04:57:05.377Z,296.00
2022-07-30T04:58:05.033Z,288.00
2022-07-30T04:59:05.023Z,248.00
2022-07-30T05:00:05.050Z,236.00
2022-07-30T05:01:04.976Z,232.00
2022-07-30T05:02:05.018Z,232.00
2022-07-30T05:03:05.004Z,232.00
2022-07-30T05:04:04.964Z,236.00
2022-07-30T05:05:05.032Z,244.00
2022-07-30T05:06:04.936Z,256.00
2022-07-30T05:07:05.256Z,268.00
2022-07-30T05:08:04.934Z,280.00
2022-07-30T05:09:04.899Z,300.00
2022-07-30T05:10:04.929Z,320.00
2022-07-30T05:11:04.895Z,348.00
2022-07-30T05:12:04.872Z,400.00
2022-07-30T05:13:04.889Z,424.00
2022-07-30T05:14:04.864Z,452.00
2022-07-30T05:15:04.887Z,472.00
2022-07-30T05:16:04.851Z,472.00
2022-07-30T05:17:04.833Z,484.00
2022-07-30T05:18:04.842Z,508.00
2022-07-30T05:19:07.840Z,528.00
2022-07-30T05:20:04.991Z,544.00
2022-07-30T05:21:04.775Z,568.00
2022-07-30T05:22:06.742Z,616.00
2022-07-30T05:23:04.776Z,612.00
2022-07-30T05:24:04.763Z,620.00
2022-07-30T05:25:04.768Z,608.00
2022-07-30T05:26:05.721Z,596.00
2022-07-30T05:27:04.810Z,628.00
2022-07-30T05:28:04.706Z,720.00
2022-07-30T05:29:06.993Z,804.00
2022-07-30T05:30:04.709Z,888.00
2022-07-30T05:31:08.767Z,928.00
2022-07-30T05:32:04.659Z,944.00
2022-07-30T05:33:08.151Z,852.00
2022-07-30T05:34:05.658Z,864.00
2022-07-30T05:35:04.655Z,840.00
2022-07-30T05:36:04.623Z,856.00
2022-07-30T05:37:04.926Z,952.00
2022-07-30T05:38:04.611Z,964.00
2022-07-30T05:39:04.618Z,936.00
2022-07-30T05:40:04.602Z,972.00
2022-07-30T05:41:04.572Z,1096.00
2022-07-30T05:42:05.578Z,1156.00
2022-07-30T05:43:04.560Z,1088.00
2022-07-30T05:44:04.545Z,1100.00
2022-07-30T05:45:04.562Z,1312.00
2022-07-30T05:46:04.580Z,1216.00
2022-07-30T05:47:04.502Z,980.00
2022-07-30T05:48:04.494Z,940.00
2022-07-30T05:49:04.528Z,860.00
2022-07-30T05:50:05.388Z,960.00
2022-07-30T05:51:04.467Z,1128.00
2022-07-30T05:52:04.477Z,1132.00
2022-07-30T05:53:04.461Z,836.00
2022-07-30T05:54:04.466Z,708.00
2022-07-30T05:55:04.443Z,748.00
2022-07-30T05:56:04.416Z,824.00
2022-07-30T05:57:04.508Z,808.00
2022-07-30T05:58:04.425Z,700.00
2022-07-30T05:59:04.399Z,736.00
2022-07-30T06:00:04.394Z,788.00
2022-07-30T06:01:04.343Z,868.00
2022-07-30T06:02:04.431Z,912.00
2022-07-30T06:03:04.333Z,924.00
2022-07-30T06:04:04.443Z,952.00
2022-07-30T06:05:04.448Z,900.00
2022-07-30T06:06:04.310Z,944.00
2022-07-30T06:07:04.459Z,1140.00
2022-07-30T06:08:04.328Z,1136.00
2022-07-30T06:09:04.286Z,1084.00
2022-07-30T06:10:04.292Z,1184.00
2022-07-30T06:11:04.255Z,1336.00
2022-07-30T06:12:04.257Z,1452.00
2022-07-30T06:13:04.223Z,1448.00
2022-07-30T06:14:04.223Z,1564.00
2022-07-30T06:15:04.238Z,1540.00
2022-07-30T06:16:04.285Z,1556.00
2022-07-30T06:17:04.407Z,1860.00
2022-07-30T06:18:04.171Z,2156.00
2022-07-30T06:19:04.202Z,2800.00
2022-07-30T06:20:04.184Z,2788.00
2022-07-30T06:21:04.161Z,3532.00
2022-07-30T06:22:06.652Z,2644.00
2022-07-30T06:23:04.126Z,2476.00
2022-07-30T06:24:04.126Z,2664.00
2022-07-30T06:25:04.100Z,2248.00
2022-07-30T06:26:04.142Z,2076.00
2022-07-30T06:27:04.428Z,1896.00
2022-07-30T06:28:21.336Z,2300.00
2022-07-30T06:29:05.068Z,2308.00
2022-07-30T06:30:04.046Z,2320.00
2022-07-30T06:31:04.088Z,1584.00
2022-07-30T06:32:04.044Z,1344.00
2022-07-30T06:33:04.008Z,2028.00
2022-07-30T06:34:04.035Z,2228.00
2022-07-30T06:35:05.058Z,1532.00
2022-07-30T06:36:04.014Z,1716.00
2022-07-30T06:37:04.167Z,1724.00
2022-07-30T06:38:07.285Z,1472.00
2022-07-30T06:39:03.948Z,1200.00
2022-07-30T06:40:03.965Z,1116.00
2022-07-30T06:41:04.633Z,1024.00
2022-07-30T06:42:03.924Z,1016.00
2022-07-30T06:43:03.936Z,1116.00
2022-07-30T06:44:03.906Z,1048.00
2022-07-30T06:45:03.916Z,1068.00
2022-07-30T06:46:03.972Z,1184.00
2022-07-30T06:47:07.889Z,1296.00
2022-07-30T06:48:03.898Z,1420.00
2022-07-30T06:49:03.931Z,1524.00
2022-07-30T06:50:03.874Z,1476.00
2022-07-30T06:51:03.834Z,1332.00
2022-07-30T06:52:03.828Z,1292.00
2022-07-30T06:53:03.837Z,1276.00
2022-07-30T06:54:03.769Z,1564.00
2022-07-30T06:55:03.812Z,1916.00
2022-07-30T06:56:03.788Z,1676.00
2022-07-30T06:57:04.010Z,1464.00
2022-07-30T06:58:03.774Z,1640.00
2022-07-30T06:59:03.758Z,1472.00
2022-07-30T07:00:03.743Z,1472.00
2022-07-30T07:01:03.867Z,1712.00
2022-07-30T07:02:04.718Z,2248.00
2022-07-30T07:03:03.719Z,2240.00
2022-07-30T07:04:03.707Z,2372.00
2022-07-30T07:05:03.671Z,2432.00
2022-07-30T07:06:03.690Z,2604.00
2022-07-30T07:07:12.567Z,2596.00
2022-07-30T07:08:04.678Z,2788.00
2022-07-30T07:09:03.674Z,3340.00
2022-07-30T07:10:03.633Z,4196.00
2022-07-30T07:11:03.621Z,4312.00
2022-07-30T07:12:03.634Z,4692.00
2022-07-30T07:13:03.619Z,4664.00
2022-07-30T07:14:04.927Z,3708.00
2022-07-30T07:15:03.600Z,2872.00
2022-07-30T07:16:03.569Z,3308.00
2022-07-30T07:17:03.739Z,3392.00
2022-07-30T07:18:03.551Z,3468.00
2022-07-30T07:19:03.536Z,4256.00
2022-07-30T07:20:03.562Z,3240.00
2022-07-30T07:21:03.525Z,2756.00
2022-07-30T07:22:03.522Z,3108.00
2022-07-30T07:23:08.874Z,4508.00
2022-07-30T07:24:04.498Z,5720.00
2022-07-30T07:25:03.500Z,5740.00
2022-07-30T07:26:03.494Z,4828.00
2022-07-30T07:27:03.655Z,5152.00
2022-07-30T07:28:11.921Z,5188.00
2022-07-30T07:29:05.362Z,4528.00
2022-07-30T07:30:05.646Z,4184.00
2022-07-30T07:31:03.522Z,4864.00
2022-07-30T07:32:07.723Z,4980.00
2022-07-30T07:33:03.386Z,4548.00
2022-07-30T07:34:03.398Z,3748.00
2022-07-30T07:35:03.379Z,3068.00
2022-07-30T07:36:03.360Z,2720.00
2022-07-30T07:37:03.562Z,2828.00
2022-07-30T07:38:03.353Z,3752.00
2022-07-30T07:39:03.330Z,3756.00
2022-07-30T07:40:03.315Z,4236.00
2022-07-30T07:41:03.318Z,4032.00
2022-07-30T07:42:03.286Z,4884.00
2022-07-30T07:43:03.317Z,4424.00
2022-07-30T07:44:03.289Z,4832.00
2022-07-30T07:45:03.264Z,5204.00
2022-07-30T07:46:03.310Z,4644.00
2022-07-30T07:47:03.473Z,4080.00
2022-07-30T07:48:03.257Z,4716.00
2022-07-30T07:49:03.290Z,4544.00
2022-07-30T07:50:03.226Z,3668.00
2022-07-30T07:51:03.231Z,3160.00
2022-07-30T07:52:04.199Z,3040.00
2022-07-30T07:53:03.217Z,2928.00
2022-07-30T07:54:20.251Z,3012.00
2022-07-30T07:55:04.170Z,3068.00
2022-07-30T07:56:03.203Z,3160.00
2022-07-30T07:57:04.261Z,3432.00
2022-07-30T07:58:03.137Z,3272.00
2022-07-30T07:59:03.141Z,3328.00
2022-07-30T08:00:03.114Z,3576.00
2022-07-30T08:01:03.203Z,3524.00
2022-07-30T08:02:03.910Z,3452.00
2022-07-30T08:03:03.144Z,3576.00
2022-07-30T08:04:03.092Z,3368.00
2022-07-30T08:05:04.055Z,3440.00
2022-07-30T08:06:06.385Z,3468.00
2022-07-30T08:07:03.774Z,3868.00
2022-07-30T08:08:03.035Z,3988.00
2022-07-30T08:09:03.019Z,3600.00
2022-07-30T08:10:03.025Z,3500.00
2022-07-30T08:11:03.016Z,3440.00
2022-07-30T08:12:03.005Z,3540.00
2022-07-30T08:13:02.996Z,3600.00
2022-07-30T08:14:02.960Z,3684.00
2022-07-30T08:15:03.046Z,4072.00
2022-07-30T08:16:02.957Z,5592.00
2022-07-30T08:17:03.192Z,4808.00
2022-07-30T08:18:02.933Z,4548.00
2022-07-30T08:19:02.906Z,3804.00
2022-07-30T08:20:02.921Z,3692.00
2022-07-30T08:21:02.883Z,3708.00
2022-07-30T08:22:02.861Z,3720.00
2022-07-30T08:23:02.860Z,3804.00
2022-07-30T08:24:02.862Z,3884.00
2022-07-30T08:25:03.804Z,3912.00
2022-07-30T08:26:02.841Z,3976.00
2022-07-30T08:27:03.239Z,4232.00
2022-07-30T08:28:02.856Z,6196.00
2022-07-30T08:29:02.802Z,17088.00
2022-07-30T08:30:02.799Z,24800.00
2022-07-30T08:31:02.850Z,24256.00
2022-07-30T08:32:03.196Z,23840.00
2022-07-30T08:33:02.757Z,23008.00
2022-07-30T08:34:02.776Z,22944.00
2022-07-30T08:35:02.794Z,22496.00
2022-07-30T08:36:03.102Z,22656.00
2022-07-30T08:37:03.753Z,22400.00
2022-07-30T08:38:02.720Z,22240.00
2022-07-30T08:39:02.724Z,21856.00
2022-07-30T08:40:02.689Z,21824.00
2022-07-30T08:41:02.732Z,21184.00
2022-07-30T08:42:02.888Z,20064.00
2022-07-30T08:43:02.660Z,20928.00
2022-07-30T08:44:02.657Z,20768.00
2022-07-30T08:45:02.647Z,21280.00
2022-07-30T08:46:02.662Z,20928.00
2022-07-30T08:47:02.947Z,20768.00
2022-07-30T08:48:02.650Z,20928.00
2022-07-30T08:49:09.073Z,21408.00
2022-07-30T08:50:03.603Z,21408.00
2022-07-30T08:51:02.615Z,21056.00
2022-07-30T08:52:02.841Z,21088.00
2022-07-30T08:53:02.600Z,21248.00
2022-07-30T08:54:02.559Z,21120.00
2022-07-30T08:55:02.544Z,21568.00
2022-07-30T08:56:02.551Z,21248.00
2022-07-30T08:57:02.550Z,20800.00
2022-07-30T08:58:02.510Z,22016.00
2022-07-30T08:59:02.507Z,21824.00
2022-07-30T09:00:02.498Z,21984.00
2022-07-30T09:01:02.491Z,20704.00
2022-07-30T09:02:02.829Z,21824.00
2022-07-30T09:03:02.483Z,21760.00
2022-07-30T09:04:02.489Z,22144.00
2022-07-30T09:05:02.454Z,19776.00
2022-07-30T09:06:02.498Z,19744.00
2022-07-30T09:07:02.750Z,20832.00
2022-07-30T09:08:03.291Z,21696.00
2022-07-30T09:09:02.391Z,21632.00
2022-07-30T09:10:02.372Z,10316.00
2022-07-30T09:11:02.415Z,21120.00
2022-07-30T09:12:02.377Z,21600.00
2022-07-30T09:13:02.366Z,21504.00
2022-07-30T09:14:04.820Z,21248.00
2022-07-30T09:15:02.362Z,21760.00
2022-07-30T09:16:02.368Z,18752.00
2022-07-30T09:17:02.572Z,22880.00
2022-07-30T09:18:02.320Z,23840.00
2022-07-30T09:19:02.306Z,25408.00
2022-07-30T09:20:02.324Z,29056.00
2022-07-30T09:21:02.314Z,37472.00
2022-07-30T09:22:02.304Z,40576.00
2022-07-30T09:23:02.273Z,42592.00
2022-07-30T09:24:02.286Z,46976.00
2022-07-30T09:25:02.251Z,47872.00
2022-07-30T09:26:02.242Z,44608.00
2022-07-30T09:27:02.563Z,42464.00
2022-07-30T09:28:02.224Z,48480.00
2022-07-30T09:29:03.219Z,52416.00
2022-07-30T09:30:02.205Z,53920.00
2022-07-30T09:31:02.214Z,54656.00
2022-07-30T09:32:02.393Z,61312.00
2022-07-30T09:33:02.193Z,57952.00
2022-07-30T09:34:02.175Z,52960.00
2022-07-30T09:35:02.190Z,50944.00
2022-07-30T09:36:02.193Z,58848.00
2022-07-30T09:37:02.210Z,31392.00
2022-07-30T09:38:06.293Z,49600.00
2022-07-30T09:39:02.133Z,44832.00
2022-07-30T09:40:02.118Z,4036.00
2022-07-30T09:41:08.196Z,49792.00
2022-07-30T09:42:03.505Z,58688.00
2022-07-30T09:43:02.141Z,63328.00
2022-07-30T09:44:02.098Z,65792.00
2022-07-30T09:45:02.087Z,62656.00
2022-07-30T09:46:02.065Z,38432.00
2022-07-30T09:47:02.052Z,32256.00
2022-07-30T09:48:02.062Z,47456.00
2022-07-30T09:49:02.083Z,42816.00
2022-07-30T09:50:07.124Z,6284.00
2022-07-30T09:51:03.045Z,4996.00
2022-07-30T09:52:02.116Z,5268.00
2022-07-30T09:53:02.035Z,5332.00
2022-07-30T09:54:01.982Z,8624.00
2022-07-30T09:55:01.995Z,4380.00
2022-07-30T09:56:01.992Z,3244.00
2022-07-30T09:57:02.014Z,2808.00
2022-07-30T09:58:01.975Z,2872.00
2022-07-30T09:59:01.982Z,2672.00
2022-07-30T10:00:01.931Z,2444.00
2022-07-30T10:01:01.936Z,2232.00
2022-07-30T10:02:04.106Z,1844.00
2022-07-30T10:03:12.271Z,1760.00
2022-07-30T10:04:02.892Z,1792.00
2022-07-30T10:05:01.922Z,2600.00
2022-07-30T10:06:03.156Z,3140.00
2022-07-30T10:07:01.877Z,3360.00
2022-07-30T10:08:05.459Z,3404.00
2022-07-30T10:09:13.665Z,3316.00
2022-07-30T10:10:02.853Z,2796.00
2022-07-30T10:11:08.493Z,3048.00
2022-07-30T10:12:03.290Z,2900.00
2022-07-30T10:13:04.190Z,2800.00
2022-07-30T10:14:01.800Z,2920.00
2022-07-30T10:15:01.837Z,3252.00
2022-07-30T10:16:01.776Z,3156.00
2022-07-30T10:17:02.978Z,3592.00
2022-07-30T10:18:01.781Z,5020.00
2022-07-30T10:19:01.750Z,5184.00
2022-07-30T10:20:03.096Z,4384.00
2022-07-30T10:21:05.320Z,3460.00
2022-07-30T10:22:01.890Z,3436.00
2022-07-30T10:23:07.906Z,3456.00
2022-07-30T10:24:02.711Z,2884.00
2022-07-30T10:25:01.710Z,2624.00
2022-07-30T10:26:03.584Z,2524.00
2022-07-30T10:27:01.831Z,2480.00
2022-07-30T10:28:02.963Z,2788.00
2022-07-30T10:29:01.657Z,3608.00
2022-07-30T10:30:03.520Z,4500.00
2022-07-30T10:31:01.639Z,5532.00
2022-07-30T10:32:02.606Z,7076.00
2022-07-30T10:33:01.794Z,7828.00
2022-07-30T10:34:01.614Z,8108.00
2022-07-30T10:35:01.583Z,7168.00
2022-07-30T10:36:02.738Z,5368.00
2022-07-30T10:37:04.627Z,5356.00
2022-07-30T10:38:02.563Z,5632.00
2022-07-30T10:39:01.542Z,5628.00
2022-07-30T10:40:01.535Z,4544.00
2022-07-30T10:41:01.585Z,2872.00
2022-07-30T10:42:01.512Z,2572.00
2022-07-30T10:43:01.514Z,2748.00
2022-07-30T10:44:01.481Z,5544.00
2022-07-30T10:45:01.518Z,6656.00
2022-07-30T10:46:02.802Z,7676.00
2022-07-30T10:47:01.584Z,7348.00
2022-07-30T10:48:02.468Z,7508.00
2022-07-30T10:49:01.525Z,7068.00
2022-07-30T10:50:01.499Z,6048.00
2022-07-30T10:51:01.440Z,5532.00
2022-07-30T10:52:01.416Z,5320.00
2022-07-30T10:53:01.416Z,4976.00
2022-07-30T10:54:01.398Z,4780.00
2022-07-30T10:55:01.383Z,4684.00
2022-07-30T10:56:01.580Z,4664.00
2022-07-30T10:57:01.595Z,4676.00
2022-07-30T10:58:01.364Z,4640.00
2022-07-30T10:59:02.835Z,4424.00
2022-07-30T11:00:04.022Z,4188.00
2022-07-30T11:01:01.349Z,4008.00
2022-07-30T11:02:02.559Z,3756.00
2022-07-30T11:03:01.309Z,3624.00
2022-07-30T11:04:02.288Z,3452.00
2022-07-30T11:05:01.288Z,3396.00
2022-07-30T11:06:01.326Z,3416.00
2022-07-30T11:07:01.275Z,3132.00
2022-07-30T11:08:01.246Z,2892.00
2022-07-30T11:09:01.262Z,3032.00
2022-07-30T11:10:08.728Z,3012.00
2022-07-30T11:11:19.539Z,3148.00
2022-07-30T11:12:16.226Z,3584.00
2022-07-30T11:13:02.198Z,3580.00
2022-07-30T11:14:01.206Z,3968.00
2022-07-30T11:15:07.375Z,3432.00
2022-07-30T11:16:02.170Z,3388.00
2022-07-30T11:17:02.183Z,3784.00
2022-07-30T11:18:01.177Z,3956.00
2022-07-30T11:19:27.227Z,3628.00
2022-07-30T11:20:02.255Z,3168.00
2022-07-30T11:21:01.116Z,4196.00
2022-07-30T11:22:02.397Z,3672.00
2022-07-30T11:23:01.089Z,3344.00
2022-07-30T11:24:01.081Z,3180.00
2022-07-30T11:25:01.089Z,2612.00
2022-07-30T11:26:01.064Z,2512.00
2022-07-30T11:27:01.049Z,2464.00
2022-07-30T11:28:01.072Z,2036.00
2022-07-30T11:29:01.032Z,2604.00
2022-07-30T11:30:01.030Z,3408.00
2022-07-30T11:31:01.033Z,2588.00
2022-07-30T11:32:06.773Z,2248.00
2022-07-30T11:33:02.017Z,2512.00
2022-07-30T11:34:01.005Z,2452.00
2022-07-30T11:35:00.994Z,2428.00
2022-07-30T11:36:00.977Z,2556.00
2022-07-30T11:37:00.949Z,2252.00
2022-07-30T11:38:02.324Z,1796.00
2022-07-30T11:39:05.094Z,1796.00
2022-07-30T11:40:01.931Z,2624.00
2022-07-30T11:41:00.901Z,2852.00
2022-07-30T11:42:01.117Z,3176.00
2022-07-30T11:43:00.903Z,3384.00
2022-07-30T11:44:00.903Z,3300.00
2022-07-30T11:45:03.965Z,3208.00
2022-07-30T11:46:00.870Z,3232.00
2022-07-30T11:47:00.844Z,3268.00
2022-07-30T11:48:00.853Z,3100.00
2022-07-30T11:49:00.930Z,3188.00
2022-07-30T11:50:00.823Z,3992.00
2022-07-30T11:51:03.767Z,4892.00
2022-07-30T11:52:01.019Z,5080.00
2022-07-30T11:53:00.800Z,5164.00
2022-07-30T11:54:00.791Z,5212.00
2022-07-30T11:55:00.784Z,5468.00
2022-07-30T11:56:00.797Z,5044.00
2022-07-30T11:57:04.412Z,4336.00
2022-07-30T11:58:00.765Z,3828.00
2022-07-30T11:59:00.733Z,3568.00
2022-07-30T12:00:00.734Z,3692.00
2022-07-30T12:01:00.697Z,4212.00
2022-07-30T12:02:01.113Z,4412.00
2022-07-30T12:03:03.892Z,3916.00
2022-07-30T12:04:00.656Z,3260.00
2022-07-30T12:05:00.659Z,2980.00
2022-07-30T12:06:00.657Z,2924.00
2022-07-30T12:07:00.885Z,2944.00
2022-07-30T12:08:00.668Z,2836.00
2022-07-30T12:09:00.634Z,3356.00
2022-07-30T12:10:00.613Z,3656.00
2022-07-30T12:11:00.618Z,3876.00
2022-07-30T12:12:01.001Z,4252.00
2022-07-30T12:13:00.622Z,4228.00
2022-07-30T12:14:00.598Z,4036.00
2022-07-30T12:15:02.096Z,3940.00
2022-07-30T12:16:00.547Z,3324.00
2022-07-30T12:17:00.814Z,2988.00
2022-07-30T12:18:24.231Z,2872.00
2022-07-30T12:19:01.546Z,2880.00
2022-07-30T12:20:00.510Z,2844.00
2022-07-30T12:21:00.514Z,2944.00
2022-07-30T12:22:00.483Z,2848.00
2022-07-30T12:23:00.523Z,2812.00
2022-07-30T12:24:00.496Z,3148.00
2022-07-30T12:25:00.466Z,3216.00
2022-07-30T12:26:00.462Z,3688.00
2022-07-30T12:27:00.717Z,3492.00
2022-07-30T12:28:00.450Z,3204.00